createdAt,value
2023-04-02T00:03:57.319Z,92603.45
2023-04-02T00:09:21.077Z,92605.31
2023-04-02T00:14:33.880Z,92612.14
2023-04-02T00:19:59.858Z,92606.63
2023-04-02T00:25:11.342Z,92600.12
2023-04-02T00:30:18.501Z,92609.41
2023-04-02T00:35:32.006Z,92612.80
2023-04-02T00:40:41.769Z,92600.69
2023-04-02T00:45:52.966Z,92602.98
2023-04-02T00:51:12.903Z,92605.56
2023-04-02T00:56:29.900Z,92608.97
2023-04-02T01:01:40.805Z,92598.38
2023-04-02T01:06:49.786Z,92598.43
2023-04-02T01:12:19.372Z,92596.41
2023-04-02T01:18:02.361Z,92595.52
2023-04-02T01:23:17.654Z,92598.13
2023-04-02T01:28:32.447Z,92601.33
2023-04-02T01:33:39.664Z,92601.60
2023-04-02T01:39:08.571Z,92421.84
2023-04-02T01:44:19.879Z,92593.75
2023-04-02T01:49:27.563Z,92596.39
2023-04-02T01:54:37.557Z,92602.95
2023-04-02T01:59:44.799Z,92601.30
2023-04-02T02:04:51.864Z,92603.51
2023-04-02T02:09:59.004Z,92610.09
2023-04-02T02:15:08.559Z,92608.56
2023-04-02T02:20:16.618Z,92614.68
2023-04-02T02:25:27.558Z,92608.34
2023-04-02T02:30:49.944Z,92618.93
2023-04-02T02:36:33.879Z,92619.20
2023-04-02T02:42:14.856Z,92611.86
2023-04-02T02:47:30.559Z,92616.89
2023-04-02T02:52:41.370Z,92615.08
2023-04-02T02:57:58.739Z,92618.52
2023-04-02T03:03:10.407Z,92618.27
2023-04-02T03:08:28.686Z,92625.70
2023-04-02T03:13:40.595Z,92623.56
2023-04-02T03:19:03.800Z,92626.46
2023-04-02T03:24:35.552Z,92629.39
2023-04-02T03:29:48.207Z,92630.16
2023-04-02T03:34:59.436Z,92641.45
2023-04-02T03:40:10.439Z,92643.27
2023-04-02T03:45:26.653Z,92643.60
2023-04-02T03:50:46.332Z,92646.95
2023-04-02T03:55:54.359Z,92646.92
2023-04-02T04:01:23.463Z,92657.76
2023-04-02T04:06:36.184Z,92651.36
2023-04-02T04:11:50.322Z,92661.15
2023-04-02T04:17:02.203Z,92660.63
2023-04-02T04:22:34.552Z,92668.75
2023-04-02T04:27:55.306Z,92671.67
2023-04-02T04:33:24.167Z,92682.99
2023-04-02T04:38:41.107Z,92687.71
2023-04-02T04:44:19.310Z,92695.61
2023-04-02T04:49:42.478Z,92684.00
2023-04-02T04:54:49.649Z,92686.66
2023-04-02T05:00:00.964Z,92698.52
2023-04-02T05:05:18.417Z,92700.88
2023-04-02T05:10:44.349Z,92522.84
2023-04-02T05:16:27.578Z,92702.59
2023-04-02T05:21:50.823Z,92718.77
2023-04-02T05:27:01.921Z,92706.70
2023-04-02T05:32:25.603Z,92717.91
2023-04-02T05:37:33.238Z,92719.30
2023-04-02T05:42:41.773Z,92534.19
2023-04-02T05:47:50.678Z,92722.07
2023-04-02T05:53:19.894Z,92726.66
2023-04-02T05:58:48.665Z,92731.40
2023-04-02T06:04:30.082Z,92727.70
2023-04-02T06:09:47.573Z,92732.53
2023-04-02T06:14:55.890Z,92736.62
2023-04-02T06:20:06.064Z,92735.52
2023-04-02T06:25:23.315Z,92749.08
2023-04-02T06:30:40.461Z,92749.05
2023-04-02T06:35:49.843Z,92756.97
2023-04-02T06:41:16.490Z,92755.02
2023-04-02T06:46:47.417Z,92757.73
2023-04-02T06:51:57.657Z,92764.91
2023-04-02T06:57:05.933Z,92777.20
2023-04-02T07:02:37.180Z,92784.20
2023-04-02T07:07:44.080Z,92812.03
2023-04-02T07:12:50.858Z,92798.02
2023-04-02T07:17:59.377Z,92793.41
2023-04-02T07:23:07.120Z,92794.59
2023-04-02T07:28:16.812Z,92798.48
2023-04-02T07:33:31.781Z,92811.34
2023-04-02T07:38:39.210Z,92806.52
2023-04-02T07:43:46.574Z,92628.75
2023-04-02T07:48:53.498Z,92807.25
2023-04-02T07:54:01.890Z,92810.03
2023-04-02T07:59:08.880Z,92818.75
2023-04-02T08:04:23.374Z,92825.30
2023-04-02T08:09:30.284Z,92826.34
2023-04-02T08:14:37.475Z,92833.84
2023-04-02T08:19:54.269Z,92838.16
2023-04-02T08:24:53.530Z,92828.27
2023-04-02T08:30:00.345Z,92828.97
2023-04-02T08:35:10.308Z,92837.99
2023-04-02T08:40:30.371Z,92830.95
2023-04-02T08:45:56.937Z,92835.66
2023-04-02T08:51:08.347Z,92835.91
2023-04-02T08:56:39.062Z,92833.02
2023-04-02T09:01:56.400Z,92837.27
2023-04-02T09:07:05.018Z,92839.69
2023-04-02T09:12:31.062Z,92832.64
2023-04-02T09:17:50.566Z,92845.55
2023-04-02T09:22:52.066Z,92853.59
2023-04-02T09:28:06.458Z,92847.95
2023-04-02T09:33:13.256Z,92855.19
2023-04-02T09:38:30.924Z,92856.01
2023-04-02T09:43:40.886Z,92860.55
2023-04-02T09:48:58.599Z,92886.02
2023-04-02T09:54:12.545Z,92872.41
2023-04-02T09:59:22.139Z,92871.39
2023-04-02T10:04:49.559Z,92874.44
2023-04-02T10:10:07.229Z,92877.31
2023-04-02T10:15:24.293Z,92874.64
2023-04-02T10:20:41.796Z,92872.80
2023-04-02T10:25:47.667Z,92876.11
2023-04-02T10:31:07.782Z,92876.43
2023-04-02T10:36:47.335Z,92877.97
2023-04-02T10:42:10.468Z,92884.23
2023-04-02T10:47:28.071Z,92884.84
2023-04-02T10:52:56.529Z,92885.87
2023-04-02T10:58:07.304Z,92883.15
2023-04-02T11:03:24.412Z,92889.51
2023-04-02T11:08:44.338Z,92896.63
2023-04-02T11:13:58.751Z,92892.49
2023-04-02T11:19:33.406Z,92895.75
2023-04-02T11:24:58.089Z,92904.36
2023-04-02T11:30:16.058Z,92903.47
2023-04-02T11:35:38.792Z,92907.45
2023-04-02T11:40:58.299Z,92903.28
2023-04-02T11:46:09.726Z,92902.98
2023-04-02T11:51:36.699Z,92903.64
2023-04-02T11:57:04.548Z,92908.25
2023-04-02T12:02:30.333Z,92905.10
2023-04-02T12:08:04.224Z,92906.27
2023-04-02T12:13:16.973Z,92900.02
2023-04-02T12:18:26.071Z,92899.80
2023-04-02T12:23:36.996Z,92907.80
2023-04-02T12:28:45.334Z,92908.03
2023-04-02T12:33:53.966Z,92901.66
2023-04-02T12:39:01.247Z,92906.44
2023-04-02T12:44:23.909Z,92906.48
2023-04-02T12:49:42.837Z,92917.66
2023-04-02T12:54:59.238Z,92920.36
2023-04-02T13:00:28.793Z,92924.42
2023-04-02T13:05:45.718Z,92923.08
2023-04-02T13:11:04.877Z,92932.00
2023-04-02T13:16:30.580Z,92930.01
2023-04-02T13:21:37.992Z,92941.95
2023-04-02T13:26:44.767Z,92953.38
2023-04-02T13:31:52.855Z,92952.79
2023-04-02T13:37:02.606Z,92951.58
2023-04-02T13:42:11.267Z,92956.20
2023-04-02T13:47:18.487Z,92960.22
2023-04-02T13:52:25.615Z,92957.07
2023-04-02T13:57:34.226Z,92958.64
2023-04-02T14:02:46.656Z,92957.31
2023-04-02T14:08:02.694Z,92949.75
2023-04-02T14:13:51.448Z,92949.64
2023-04-02T14:19:23.748Z,92949.56
2023-04-02T14:24:41.315Z,92948.42
2023-04-02T14:30:28.860Z,92947.48
2023-04-02T14:35:43.270Z,92952.47
2023-04-02T14:41:00.550Z,92940.45
2023-04-02T14:46:11.283Z,92960.27
2023-04-02T14:51:34.748Z,92954.83
2023-04-02T14:56:48.808Z,92960.22
2023-04-02T15:02:24.069Z,92963.02
2023-04-02T15:07:53.203Z,92981.80
2023-04-02T15:13:03.622Z,92981.63
2023-04-02T15:18:19.350Z,92973.95
2023-04-02T15:23:30.761Z,92990.20
2023-04-02T15:28:48.008Z,92999.21
2023-04-02T15:34:08.103Z,93002.43
2023-04-02T15:39:40.296Z,93007.88
2023-04-02T15:45:10.600Z,93010.56
2023-04-02T15:50:38.278Z,93011.79
2023-04-02T15:56:19.366Z,93019.36
2023-04-02T16:01:45.436Z,93019.58
2023-04-02T16:07:21.435Z,93023.81
2023-04-02T16:12:29.816Z,93026.48
2023-04-02T16:17:43.986Z,93043.96
2023-04-02T16:23:00.804Z,93039.70
2023-04-02T16:28:17.008Z,93053.17
2023-04-02T16:33:33.717Z,93058.89
2023-04-02T16:39:16.260Z,93065.67
2023-04-02T16:44:30.470Z,93073.39
2023-04-02T16:50:03.238Z,93068.94
2023-04-02T16:55:49.277Z,93073.36
2023-04-02T17:01:06.687Z,93076.97
2023-04-02T17:06:21.442Z,93085.27
2023-04-02T17:11:43.660Z,93098.11
2023-04-02T17:17:00.704Z,93115.23
2023-04-02T17:22:08.039Z,93116.39
2023-04-02T17:27:38.022Z,93114.16
2023-04-02T17:32:45.126Z,93120.48
2023-04-02T17:38:26.222Z,93130.56
2023-04-02T17:43:53.579Z,93139.00
2023-04-02T17:49:14.059Z,93148.78
2023-04-02T17:54:34.188Z,93161.17
2023-04-02T18:00:03.135Z,93169.34
2023-04-02T18:05:29.084Z,93173.83
2023-04-02T18:11:03.915Z,93189.92
2023-04-02T18:16:46.369Z,93198.41
2023-04-02T18:22:24.577Z,93209.79
2023-04-02T18:27:59.638Z,93215.09
2023-04-02T18:33:18.753Z,93226.13
2023-04-02T18:38:44.717Z,93235.59
2023-04-02T18:44:16.978Z,93238.91
2023-04-02T18:49:43.418Z,93255.19
2023-04-02T18:55:00.153Z,93254.55
2023-04-02T19:00:26.734Z,93262.30
2023-04-02T19:05:58.706Z,93272.48
2023-04-02T19:11:15.187Z,93282.45
2023-04-02T19:16:55.266Z,93278.65
2023-04-02T19:22:40.417Z,93286.28
2023-04-02T19:28:12.707Z,93294.14
2023-04-02T19:33:49.895Z,93299.89
2023-04-02T19:39:04.337Z,93305.96
2023-04-02T19:44:14.693Z,93311.09
2023-04-02T19:49:26.169Z,93321.41
2023-04-02T19:54:33.526Z,93323.42
2023-04-02T19:59:40.384Z,93333.78
2023-04-02T20:04:47.496Z,93335.38
2023-04-02T20:09:54.616Z,93341.50
2023-04-02T20:15:01.646Z,93342.49
2023-04-02T20:20:11.191Z,93345.92
2023-04-02T20:25:18.199Z,93342.90
2023-04-02T20:30:25.089Z,93353.91
2023-04-02T20:35:33.448Z,93366.34
2023-04-02T20:40:42.991Z,93376.70
2023-04-02T20:46:01.670Z,93385.21
2023-04-02T20:51:12.890Z,93389.18
2023-04-02T20:56:22.408Z,93388.80
2023-04-02T21:01:31.740Z,93393.08
2023-04-02T21:06:41.714Z,93398.38
2023-04-02T21:11:48.639Z,93404.70
2023-04-02T21:16:55.573Z,93407.22
2023-04-02T21:22:02.865Z,93413.86
2023-04-02T21:27:09.976Z,93423.48
2023-04-02T21:32:21.795Z,93420.96
2023-04-02T21:37:26.385Z,93431.56
2023-04-02T21:42:34.175Z,93436.75
2023-04-02T21:47:41.541Z,93446.09
2023-04-02T21:52:49.397Z,93445.87
2023-04-02T21:57:56.314Z,93443.52
2023-04-02T22:03:03.450Z,93480.22
2023-04-02T22:08:10.995Z,93451.97
2023-04-02T22:13:17.961Z,93461.08
2023-04-02T22:18:24.990Z,93467.30
2023-04-02T22:23:32.533Z,93461.31
2023-04-02T22:28:39.713Z,93474.77
2023-04-02T22:33:47.463Z,93473.22
2023-04-02T22:38:54.394Z,93474.39
2023-04-02T22:44:03.577Z,93481.07
2023-04-02T22:49:12.033Z,93485.35
2023-04-02T22:54:18.981Z,93490.93
2023-04-02T22:59:26.402Z,93497.88
2023-04-02T23:04:33.753Z,93492.73
2023-04-02T23:09:40.838Z,93490.85
2023-04-02T23:14:47.968Z,93496.38
2023-04-02T23:19:54.855Z,93499.64
2023-04-02T23:25:01.738Z,93494.59
2023-04-02T23:30:10.299Z,93497.02
2023-04-02T23:35:17.465Z,93498.59
2023-04-02T23:40:24.304Z,93510.55
2023-04-02T23:45:31.210Z,93516.91
2023-04-02T23:50:38.286Z,93524.77
2023-04-02T23:55:46.433Z,93512.30
